sensor_id;sensor_type;location;lat;lon;timestamp;P1;durP1;ratioP1;P2;durP2;ratioP2
10641;SDS011;5369;49.586;8.646;2023-10-09T00:01:05;10.43;;;7.87;;
10641;SDS011;5369;49.586;8.646;2023-10-09T00:03:39;9.67;;;7.10;;
10641;SDS011;5369;49.586;8.646;2023-10-09T00:06:06;12.03;;;6.53;;
10641;SDS011;5369;49.586;8.646;2023-10-09T00:08:32;12.97;;;7.50;;
10641;SDS011;5369;49.586;8.646;2023-10-09T00:11:02;10.17;;;6.50;;
10641;SDS011;5369;49.586;8.646;2023-10-09T00:13:40;10.10;;;6.70;;
10641;SDS011;5369;49.586;8.646;2023-10-09T00:16:23;15.33;;;8.97;;
10641;SDS011;5369;49.586;8.646;2023-10-09T00:19:00;22.60;;;13.30;;
10641;SDS011;5369;49.586;8.646;2023-10-09T00:21:41;21.20;;;12.70;;
10641;SDS011;5369;49.586;8.646;2023-10-09T00:24:08;17.27;;;11.83;;
10641;SDS011;5369;49.586;8.646;2023-10-09T00:26:52;20.43;;;11.70;;
10641;SDS011;5369;49.586;8.646;2023-10-09T00:29:20;15.33;;;9.93;;
10641;SDS011;5369;49.586;8.646;2023-10-09T00:31:53;19.30;;;12.27;;
10641;SDS011;5369;49.586;8.646;2023-10-09T00:34:31;15.50;;;10.73;;
10641;SDS011;5369;49.586;8.646;2023-10-09T00:37:11;19.60;;;11.37;;
10641;SDS011;5369;49.586;8.646;2023-10-09T00:39:51;15.10;;;9.90;;
10641;SDS011;5369;49.586;8.646;2023-10-09T00:42:24;11.37;;;8.33;;
10641;SDS011;5369;49.586;8.646;2023-10-09T00:45:01;20.30;;;10.93;;
10641;SDS011;5369;49.586;8.646;2023-10-09T00:47:34;19.17;;;12.17;;
10641;SDS011;5369;49.586;8.646;2023-10-09T00:50:07;17.03;;;9.93;;
10641;SDS011;5369;49.586;8.646;2023-10-09T00:52:40;14.60;;;7.70;;
10641;SDS011;5369;49.586;8.646;2023-10-09T00:55:31;10.97;;;7.03;;
10641;SDS011;5369;49.586;8.646;2023-10-09T00:58:14;11.07;;;6.57;;
10641;SDS011;5369;49.586;8.646;2023-10-09T01:00:48;10.07;;;6.30;;
10641;SDS011;5369;49.586;8.646;2023-10-09T01:03:17;8.87;;;6.80;;
10641;SDS011;5369;49.586;8.646;2023-10-09T01:05:46;9.93;;;6.10;;
10641;SDS011;5369;49.586;8.646;2023-10-09T01:08:23;10.40;;;6.10;;
10641;SDS011;5369;49.586;8.646;2023-10-09T01:10:58;11.80;;;7.23;;
10641;SDS011;5369;49.586;8.646;2023-10-09T01:13:34;13.70;;;8.47;;
10641;SDS011;5369;49.586;8.646;2023-10-09T01:16:21;21.67;;;11.73;;
10641;SDS011;5369;49.586;8.646;2023-10-09T01:18:49;16.77;;;8.83;;
10641;SDS011;5369;49.586;8.646;2023-10-09T01:21:20;14.13;;;8.07;;
10641;SDS011;5369;49.586;8.646;2023-10-09T01:23:49;14.10;;;9.00;;
10641;SDS011;5369;49.586;8.646;2023-10-09T01:29:21;11.77;;;7.37;;
10641;SDS011;5369;49.586;8.646;2023-10-09T01:31:53;14.70;;;7.67;;
10641;SDS011;5369;49.586;8.646;2023-10-09T01:34:26;12.10;;;6.80;;
10641;SDS011;5369;49.586;8.646;2023-10-09T01:37:13;12.27;;;6.40;;
10641;SDS011;5369;49.586;8.646;2023-10-09T01:39:49;10.03;;;6.33;;
10641;SDS011;5369;49.586;8.646;2023-10-09T01:42:16;9.53;;;6.00;;
10641;SDS011;5369;49.586;8.646;2023-10-09T01:45:10;16.43;;;7.33;;
10641;SDS011;5369;49.586;8.646;2023-10-09T01:47:37;14.00;;;6.93;;
10641;SDS011;5369;49.586;8.646;2023-10-09T01:50:04;10.50;;;6.43;;
10641;SDS011;5369;49.586;8.646;2023-10-09T01:52:43;11.63;;;6.97;;
10641;SDS011;5369;49.586;8.646;2023-10-09T01:55:09;13.20;;;7.50;;
10641;SDS011;5369;49.586;8.646;2023-10-09T01:57:40;12.63;;;6.20;;
10641;SDS011;5369;49.586;8.646;2023-10-09T02:00:10;11.30;;;6.67;;
10641;SDS011;5369;49.586;8.646;2023-10-09T02:02:49;12.73;;;7.27;;
10641;SDS011;5369;49.586;8.646;2023-10-09T02:05:15;11.30;;;6.27;;
10641;SDS011;5369;49.586;8.646;2023-10-09T02:07:42;11.83;;;6.77;;
10641;SDS011;5369;49.586;8.646;2023-10-09T02:10:23;11.73;;;6.27;;
10641;SDS011;5369;49.586;8.646;2023-10-09T02:12:50;10.87;;;5.87;;
10641;SDS011;5369;49.586;8.646;2023-10-09T02:15:23;9.53;;;6.07;;
10641;SDS011;5369;49.586;8.646;2023-10-09T02:18:05;8.27;;;5.83;;
10641;SDS011;5369;49.586;8.646;2023-10-09T02:20:51;9.40;;;6.23;;
10641;SDS011;5369;49.586;8.646;2023-10-09T02:23:30;13.03;;;6.57;;
10641;SDS011;5369;49.586;8.646;2023-10-09T02:26:05;25.47;;;11.70;;
10641;SDS011;5369;49.586;8.646;2023-10-09T02:28:33;19.27;;;9.37;;
10641;SDS011;5369;49.586;8.646;2023-10-09T02:31:00;12.20;;;7.07;;
10641;SDS011;5369;49.586;8.646;2023-10-09T02:33:35;14.17;;;6.53;;
10641;SDS011;5369;49.586;8.646;2023-10-09T02:36:02;9.27;;;5.83;;
10641;SDS011;5369;49.586;8.646;2023-10-09T02:38:30;8.70;;;5.87;;
10641;SDS011;5369;49.586;8.646;2023-10-09T02:41:01;13.33;;;5.70;;
10641;SDS011;5369;49.586;8.646;2023-10-09T02:43:30;12.13;;;6.07;;
10641;SDS011;5369;49.586;8.646;2023-10-09T02:46:13;12.57;;;6.53;;
10641;SDS011;5369;49.586;8.646;2023-10-09T02:48:43;13.30;;;6.30;;
10641;SDS011;5369;49.586;8.646;2023-10-09T02:51:22;10.90;;;6.07;;
10641;SDS011;5369;49.586;8.646;2023-10-09T02:53:55;11.47;;;5.63;;
10641;SDS011;5369;49.586;8.646;2023-10-09T02:56:25;9.13;;;5.57;;
10641;SDS011;5369;49.586;8.646;2023-10-09T02:59:08;9.30;;;5.70;;
10641;SDS011;5369;49.586;8.646;2023-10-09T03:01:35;12.10;;;6.40;;
10641;SDS011;5369;49.586;8.646;2023-10-09T03:04:03;13.30;;;6.40;;
10641;SDS011;5369;49.586;8.646;2023-10-09T03:06:31;11.17;;;5.40;;
10641;SDS011;5369;49.586;8.646;2023-10-09T03:08:59;11.37;;;6.13;;
10641;SDS011;5369;49.586;8.646;2023-10-09T03:11:25;10.13;;;5.60;;
10641;SDS011;5369;49.586;8.646;2023-10-09T03:13:52;12.83;;;5.87;;
10641;SDS011;5369;49.586;8.646;2023-10-09T03:16:20;11.20;;;5.80;;
10641;SDS011;5369;49.586;8.646;2023-10-09T03:18:51;11.67;;;5.47;;
10641;SDS011;5369;49.586;8.646;2023-10-09T03:21:21;13.03;;;5.57;;
10641;SDS011;5369;49.586;8.646;2023-10-09T03:23:48;12.63;;;6.13;;
10641;SDS011;5369;49.586;8.646;2023-10-09T03:26:18;13.10;;;6.47;;
10641;SDS011;5369;49.586;8.646;2023-10-09T03:28:46;12.63;;;6.40;;
10641;SDS011;5369;49.586;8.646;2023-10-09T03:31:12;16.27;;;6.30;;
10641;SDS011;5369;49.586;8.646;2023-10-09T03:33:41;10.50;;;5.63;;
10641;SDS011;5369;49.586;8.646;2023-10-09T03:36:07;11.50;;;6.23;;
10641;SDS011;5369;49.586;8.646;2023-10-09T03:38:37;14.23;;;7.27;;
10641;SDS011;5369;49.586;8.646;2023-10-09T03:41:06;11.43;;;5.80;;
10641;SDS011;5369;49.586;8.646;2023-10-09T03:43:35;12.20;;;6.20;;
10641;SDS011;5369;49.586;8.646;2023-10-09T03:46:07;12.23;;;5.83;;
10641;SDS011;5369;49.586;8.646;2023-10-09T03:48:47;12.80;;;6.07;;
10641;SDS011;5369;49.586;8.646;2023-10-09T03:51:14;13.67;;;5.47;;
10641;SDS011;5369;49.586;8.646;2023-10-09T03:53:50;13.43;;;5.40;;
10641;SDS011;5369;49.586;8.646;2023-10-09T03:56:18;11.83;;;5.10;;
10641;SDS011;5369;49.586;8.646;2023-10-09T03:58:49;17.00;;;6.23;;
10641;SDS011;5369;49.586;8.646;2023-10-09T04:01:16;14.07;;;5.60;;
10641;SDS011;5369;49.586;8.646;2023-10-09T04:03:50;14.57;;;6.10;;
10641;SDS011;5369;49.586;8.646;2023-10-09T04:06:29;10.10;;;5.83;;
10641;SDS011;5369;49.586;8.646;2023-10-09T04:09:02;13.97;;;5.80;;
10641;SDS011;5369;49.586;8.646;2023-10-09T04:11:55;13.57;;;5.40;;
10641;SDS011;5369;49.586;8.646;2023-10-09T04:14:37;9.70;;;4.67;;
10641;SDS011;5369;49.586;8.646;2023-10-09T04:17:13;11.80;;;5.40;;
10641;SDS011;5369;49.586;8.646;2023-10-09T04:19:55;13.10;;;5.30;;
10641;SDS011;5369;49.586;8.646;2023-10-09T04:22:40;13.97;;;5.20;;
10641;SDS011;5369;49.586;8.646;2023-10-09T04:25:19;10.63;;;5.00;;
10641;SDS011;5369;49.586;8.646;2023-10-09T04:27:53;12.43;;;4.93;;
10641;SDS011;5369;49.586;8.646;2023-10-09T04:30:34;9.00;;;4.67;;
10641;SDS011;5369;49.586;8.646;2023-10-09T04:33:05;10.77;;;5.10;;
10641;SDS011;5369;49.586;8.646;2023-10-09T04:35:51;10.80;;;5.07;;
10641;SDS011;5369;49.586;8.646;2023-10-09T04:38:38;12.40;;;5.30;;
10641;SDS011;5369;49.586;8.646;2023-10-09T04:41:07;12.80;;;4.70;;
10641;SDS011;5369;49.586;8.646;2023-10-09T04:43:34;10.63;;;4.97;;
10641;SDS011;5369;49.586;8.646;2023-10-09T04:46:00;9.23;;;4.90;;
10641;SDS011;5369;49.586;8.646;2023-10-09T04:48:37;11.50;;;5.00;;
10641;SDS011;5369;49.586;8.646;2023-10-09T04:51:06;15.43;;;5.63;;
10641;SDS011;5369;49.586;8.646;2023-10-09T04:53:46;14.03;;;6.10;;
10641;SDS011;5369;49.586;8.646;2023-10-09T04:56:15;15.63;;;6.00;;
10641;SDS011;5369;49.586;8.646;2023-10-09T04:58:42;10.07;;;4.80;;
10641;SDS011;5369;49.586;8.646;2023-10-09T05:01:10;13.73;;;5.20;;
10641;SDS011;5369;49.586;8.646;2023-10-09T05:03:42;11.33;;;4.93;;
10641;SDS011;5369;49.586;8.646;2023-10-09T05:06:08;9.50;;;4.83;;
10641;SDS011;5369;49.586;8.646;2023-10-09T05:08:58;10.20;;;5.33;;
10641;SDS011;5369;49.586;8.646;2023-10-09T05:11:33;8.63;;;5.20;;
10641;SDS011;5369;49.586;8.646;2023-10-09T05:14:21;11.13;;;5.30;;
10641;SDS011;5369;49.586;8.646;2023-10-09T05:17:04;13.57;;;5.47;;
10641;SDS011;5369;49.586;8.646;2023-10-09T05:19:34;9.57;;;5.10;;
10641;SDS011;5369;49.586;8.646;2023-10-09T05:22:19;12.43;;;5.95;;
10641;SDS011;5369;49.586;8.646;2023-10-09T05:25:03;9.07;;;5.17;;
10641;SDS011;5369;49.586;8.646;2023-10-09T05:27:40;10.00;;;5.17;;
10641;SDS011;5369;49.586;8.646;2023-10-09T05:30:16;14.53;;;5.00;;
10641;SDS011;5369;49.586;8.646;2023-10-09T05:32:52;10.40;;;6.00;;
10641;SDS011;5369;49.586;8.646;2023-10-09T05:35:23;12.40;;;6.10;;
10641;SDS011;5369;49.586;8.646;2023-10-09T05:38:06;12.53;;;5.70;;
10641;SDS011;5369;49.586;8.646;2023-10-09T05:40:40;10.97;;;5.73;;
10641;SDS011;5369;49.586;8.646;2023-10-09T05:43:09;14.27;;;6.23;;
10641;SDS011;5369;49.586;8.646;2023-10-09T05:45:55;12.27;;;5.80;;
10641;SDS011;5369;49.586;8.646;2023-10-09T05:48:32;10.07;;;5.60;;
10641;SDS011;5369;49.586;8.646;2023-10-09T05:51:18;14.77;;;5.80;;
10641;SDS011;5369;49.586;8.646;2023-10-09T05:54:04;10.93;;;5.13;;
10641;SDS011;5369;49.586;8.646;2023-10-09T05:56:37;9.13;;;5.13;;
10641;SDS011;5369;49.586;8.646;2023-10-09T05:59:23;9.10;;;4.50;;
10641;SDS011;5369;49.586;8.646;2023-10-09T06:02:09;9.80;;;4.97;;
10641;SDS011;5369;49.586;8.646;2023-10-09T06:04:54;9.83;;;5.77;;
10641;SDS011;5369;49.586;8.646;2023-10-09T06:07:20;10.60;;;5.70;;
10641;SDS011;5369;49.586;8.646;2023-10-09T06:10:06;13.17;;;5.07;;
10641;SDS011;5369;49.586;8.646;2023-10-09T06:12:52;14.33;;;5.87;;
10641;SDS011;5369;49.586;8.646;2023-10-09T06:15:28;10.50;;;5.63;;
10641;SDS011;5369;49.586;8.646;2023-10-09T06:18:16;9.37;;;5.37;;
10641;SDS011;5369;49.586;8.646;2023-10-09T06:20:57;11.53;;;5.57;;
10641;SDS011;5369;49.586;8.646;2023-10-09T06:23:35;8.80;;;5.60;;
10641;SDS011;5369;49.586;8.646;2023-10-09T06:26:20;11.57;;;6.17;;
10641;SDS011;5369;49.586;8.646;2023-10-09T06:28:50;10.20;;;5.90;;
10641;SDS011;5369;49.586;8.646;2023-10-09T06:31:36;10.50;;;6.07;;
10641;SDS011;5369;49.586;8.646;2023-10-09T06:34:21;9.07;;;5.43;;
10641;SDS011;5369;49.586;8.646;2023-10-09T06:36:58;13.03;;;5.30;;
10641;SDS011;5369;49.586;8.646;2023-10-09T06:39:29;10.53;;;5.03;;
10641;SDS011;5369;49.586;8.646;2023-10-09T06:42:14;11.07;;;5.00;;
10641;SDS011;5369;49.586;8.646;2023-10-09T06:45:09;12.87;;;5.43;;
10641;SDS011;5369;49.586;8.646;2023-10-09T06:47:35;9.90;;;5.07;;
10641;SDS011;5369;49.586;8.646;2023-10-09T06:50:10;12.63;;;5.40;;
10641;SDS011;5369;49.586;8.646;2023-10-09T06:52:46;12.17;;;5.70;;
10641;SDS011;5369;49.586;8.646;2023-10-09T06:55:38;9.67;;;5.23;;
10641;SDS011;5369;49.586;8.646;2023-10-09T06:58:14;10.97;;;5.07;;
10641;SDS011;5369;49.586;8.646;2023-10-09T07:00:51;10.67;;;4.97;;
10641;SDS011;5369;49.586;8.646;2023-10-09T07:03:17;11.60;;;5.03;;
10641;SDS011;5369;49.586;8.646;2023-10-09T07:05:45;8.47;;;4.47;;
10641;SDS011;5369;49.586;8.646;2023-10-09T07:08:30;13.03;;;5.30;;
10641;SDS011;5369;49.586;8.646;2023-10-09T07:11:03;12.47;;;5.27;;
10641;SDS011;5369;49.586;8.646;2023-10-09T07:14:12;10.73;;;5.27;;
10641;SDS011;5369;49.586;8.646;2023-10-09T07:19:47;13.03;;;5.27;;
10641;SDS011;5369;49.586;8.646;2023-10-09T07:22:14;11.90;;;5.60;;
10641;SDS011;5369;49.586;8.646;2023-10-09T07:24:51;16.27;;;5.37;;
10641;SDS011;5369;49.586;8.646;2023-10-09T07:27:38;12.60;;;5.70;;
10641;SDS011;5369;49.586;8.646;2023-10-09T07:30:15;13.23;;;5.40;;
10641;SDS011;5369;49.586;8.646;2023-10-09T07:32:57;15.40;;;5.57;;
10641;SDS011;5369;49.586;8.646;2023-10-09T07:35:45;11.80;;;4.67;;
10641;SDS011;5369;49.586;8.646;2023-10-09T07:38:21;13.23;;;4.83;;
10641;SDS011;5369;49.586;8.646;2023-10-09T07:40:49;14.13;;;6.10;;
10641;SDS011;5369;49.586;8.646;2023-10-09T07:43:29;11.03;;;5.53;;
10641;SDS011;5369;49.586;8.646;2023-10-09T07:46:06;15.20;;;5.30;;
10641;SDS011;5369;49.586;8.646;2023-10-09T07:48:51;12.27;;;5.63;;
10641;SDS011;5369;49.586;8.646;2023-10-09T07:51:18;17.20;;;5.67;;
10641;SDS011;5369;49.586;8.646;2023-10-09T07:53:57;13.20;;;5.00;;
10641;SDS011;5369;49.586;8.646;2023-10-09T07:59:09;19.43;;;5.57;;
10641;SDS011;5369;49.586;8.646;2023-10-09T08:01:40;12.27;;;5.40;;
10641;SDS011;5369;49.586;8.646;2023-10-09T08:04:27;15.73;;;5.50;;
10641;SDS011;5369;49.586;8.646;2023-10-09T08:07:08;11.63;;;5.13;;
10641;SDS011;5369;49.586;8.646;2023-10-09T08:09:35;14.20;;;5.37;;
10641;SDS011;5369;49.586;8.646;2023-10-09T08:12:14;12.10;;;5.47;;
10641;SDS011;5369;49.586;8.646;2023-10-09T08:15:02;18.20;;;5.80;;
10641;SDS011;5369;49.586;8.646;2023-10-09T08:17:54;16.00;;;5.53;;
10641;SDS011;5369;49.586;8.646;2023-10-09T08:20:35;10.43;;;5.50;;
10641;SDS011;5369;49.586;8.646;2023-10-09T08:23:37;12.97;;;5.53;;
10641;SDS011;5369;49.586;8.646;2023-10-09T08:26:18;16.17;;;5.33;;
10641;SDS011;5369;49.586;8.646;2023-10-09T08:28:54;16.47;;;5.37;;
10641;SDS011;5369;49.586;8.646;2023-10-09T08:31:41;14.33;;;5.60;;
10641;SDS011;5369;49.586;8.646;2023-10-09T08:34:13;15.73;;;5.40;;
10641;SDS011;5369;49.586;8.646;2023-10-09T08:36:52;15.07;;;5.17;;
10641;SDS011;5369;49.586;8.646;2023-10-09T08:39:19;15.90;;;5.47;;
10641;SDS011;5369;49.586;8.646;2023-10-09T08:41:53;16.43;;;5.83;;
10641;SDS011;5369;49.586;8.646;2023-10-09T08:44:23;18.57;;;5.40;;
10641;SDS011;5369;49.586;8.646;2023-10-09T08:46:57;16.20;;;5.73;;
10641;SDS011;5369;49.586;8.646;2023-10-09T08:49:24;11.97;;;5.40;;
10641;SDS011;5369;49.586;8.646;2023-10-09T08:51:51;12.57;;;4.77;;
10641;SDS011;5369;49.586;8.646;2023-10-09T08:54:18;13.80;;;4.80;;
10641;SDS011;5369;49.586;8.646;2023-10-09T08:56:45;12.77;;;4.40;;
10641;SDS011;5369;49.586;8.646;2023-10-09T08:59:15;13.53;;;5.17;;
10641;SDS011;5369;49.586;8.646;2023-10-09T09:01:48;16.20;;;5.43;;
10641;SDS011;5369;49.586;8.646;2023-10-09T09:07:00;12.17;;;5.03;;
10641;SDS011;5369;49.586;8.646;2023-10-09T09:09:27;13.67;;;4.90;;
10641;SDS011;5369;49.586;8.646;2023-10-09T09:11:56;12.50;;;5.77;;
10641;SDS011;5369;49.586;8.646;2023-10-09T09:14:38;21.03;;;5.23;;
10641;SDS011;5369;49.586;8.646;2023-10-09T09:17:05;14.73;;;4.80;;
10641;SDS011;5369;49.586;8.646;2023-10-09T09:19:36;14.37;;;4.90;;
10641;SDS011;5369;49.586;8.646;2023-10-09T09:22:03;17.67;;;5.37;;
10641;SDS011;5369;49.586;8.646;2023-10-09T09:24:40;16.43;;;5.40;;
10641;SDS011;5369;49.586;8.646;2023-10-09T09:27:11;12.27;;;5.03;;
10641;SDS011;5369;49.586;8.646;2023-10-09T09:29:39;12.47;;;5.03;;
10641;SDS011;5369;49.586;8.646;2023-10-09T09:32:06;15.87;;;5.47;;
10641;SDS011;5369;49.586;8.646;2023-10-09T09:34:50;13.87;;;4.70;;
10641;SDS011;5369;49.586;8.646;2023-10-09T09:37:23;14.13;;;4.93;;
10641;SDS011;5369;49.586;8.646;2023-10-09T09:40:00;19.03;;;5.20;;
10641;SDS011;5369;49.586;8.646;2023-10-09T09:42:27;11.10;;;4.63;;
10641;SDS011;5369;49.586;8.646;2023-10-09T09:44:56;12.93;;;5.00;;
10641;SDS011;5369;49.586;8.646;2023-10-09T09:47:24;12.33;;;5.07;;
10641;SDS011;5369;49.586;8.646;2023-10-09T09:49:55;16.90;;;5.10;;
10641;SDS011;5369;49.586;8.646;2023-10-09T09:52:36;15.73;;;4.97;;
10641;SDS011;5369;49.586;8.646;2023-10-09T09:55:07;15.37;;;5.13;;
10641;SDS011;5369;49.586;8.646;2023-10-09T09:57:48;13.03;;;4.87;;
10641;SDS011;5369;49.586;8.646;2023-10-09T10:00:19;14.60;;;4.67;;
10641;SDS011;5369;49.586;8.646;2023-10-09T10:02:57;12.60;;;4.77;;
10641;SDS011;5369;49.586;8.646;2023-10-09T10:05:25;15.00;;;5.23;;
10641;SDS011;5369;49.586;8.646;2023-10-09T10:07:58;14.93;;;5.47;;
10641;SDS011;5369;49.586;8.646;2023-10-09T10:10:34;11.33;;;4.60;;
10641;SDS011;5369;49.586;8.646;2023-10-09T10:13:03;13.60;;;5.10;;
10641;SDS011;5369;49.586;8.646;2023-10-09T10:18:15;14.23;;;4.80;;
10641;SDS011;5369;49.586;8.646;2023-10-09T10:21:05;13.43;;;4.83;;
10641;SDS011;5369;49.586;8.646;2023-10-09T10:23:43;12.97;;;4.33;;
10641;SDS011;5369;49.586;8.646;2023-10-09T10:26:19;13.97;;;4.63;;
10641;SDS011;5369;49.586;8.646;2023-10-09T10:31:51;13.73;;;4.80;;
10641;SDS011;5369;49.586;8.646;2023-10-09T10:34:17;16.37;;;4.83;;
10641;SDS011;5369;49.586;8.646;2023-10-09T10:36:49;16.90;;;5.20;;
10641;SDS011;5369;49.586;8.646;2023-10-09T10:39:24;14.50;;;4.93;;
10641;SDS011;5369;49.586;8.646;2023-10-09T10:42:09;13.53;;;5.13;;
10641;SDS011;5369;49.586;8.646;2023-10-09T10:44:55;15.13;;;5.47;;
10641;SDS011;5369;49.586;8.646;2023-10-09T10:47:25;17.00;;;6.10;;
10641;SDS011;5369;49.586;8.646;2023-10-09T10:49:58;14.77;;;6.87;;
10641;SDS011;5369;49.586;8.646;2023-10-09T10:52:33;19.93;;;7.73;;
10641;SDS011;5369;49.586;8.646;2023-10-09T10:55:13;17.13;;;8.23;;
10641;SDS011;5369;49.586;8.646;2023-10-09T10:58:14;18.30;;;7.40;;
10641;SDS011;5369;49.586;8.646;2023-10-09T11:00:52;18.17;;;6.37;;
10641;SDS011;5369;49.586;8.646;2023-10-09T11:03:22;18.23;;;6.60;;
10641;SDS011;5369;49.586;8.646;2023-10-09T11:06:00;17.90;;;7.17;;
10641;SDS011;5369;49.586;8.646;2023-10-09T11:08:45;14.33;;;6.20;;
10641;SDS011;5369;49.586;8.646;2023-10-09T11:11:22;16.40;;;5.40;;
10641;SDS011;5369;49.586;8.646;2023-10-09T11:14:07;12.33;;;4.83;;
10641;SDS011;5369;49.586;8.646;2023-10-09T11:16:35;14.17;;;5.30;;
10641;SDS011;5369;49.586;8.646;2023-10-09T11:19:11;18.97;;;5.20;;
10641;SDS011;5369;49.586;8.646;2023-10-09T11:21:53;13.70;;;5.27;;
10641;SDS011;5369;49.586;8.646;2023-10-09T11:24:33;20.93;;;8.27;;
10641;SDS011;5369;49.586;8.646;2023-10-09T11:27:00;10.63;;;6.00;;
10641;SDS011;5369;49.586;8.646;2023-10-09T11:29:34;18.40;;;5.20;;
10641;SDS011;5369;49.586;8.646;2023-10-09T11:32:17;9.67;;;4.67;;
10641;SDS011;5369;49.586;8.646;2023-10-09T11:34:44;18.03;;;5.87;;
10641;SDS011;5369;49.586;8.646;2023-10-09T11:37:20;14.83;;;5.33;;
10641;SDS011;5369;49.586;8.646;2023-10-09T11:39:56;20.50;;;5.63;;
10641;SDS011;5369;49.586;8.646;2023-10-09T11:42:23;13.33;;;5.17;;
10641;SDS011;5369;49.586;8.646;2023-10-09T11:45:08;13.50;;;5.17;;
10641;SDS011;5369;49.586;8.646;2023-10-09T11:47:48;13.80;;;5.03;;
10641;SDS011;5369;49.586;8.646;2023-10-09T11:50:40;15.20;;;4.87;;
10641;SDS011;5369;49.586;8.646;2023-10-09T11:53:22;10.93;;;4.73;;
10641;SDS011;5369;49.586;8.646;2023-10-09T11:55:48;13.70;;;4.60;;
10641;SDS011;5369;49.586;8.646;2023-10-09T11:58:16;10.87;;;4.77;;
10641;SDS011;5369;49.586;8.646;2023-10-09T12:00:56;11.03;;;4.57;;
10641;SDS011;5369;49.586;8.646;2023-10-09T12:03:27;11.93;;;4.80;;
10641;SDS011;5369;49.586;8.646;2023-10-09T12:08:29;12.47;;;4.50;;
10641;SDS011;5369;49.586;8.646;2023-10-09T12:10:55;12.13;;;4.80;;
10641;SDS011;5369;49.586;8.646;2023-10-09T12:13:24;12.47;;;4.43;;
10641;SDS011;5369;49.586;8.646;2023-10-09T12:16:01;11.97;;;4.80;;
10641;SDS011;5369;49.586;8.646;2023-10-09T12:18:41;16.47;;;5.33;;
10641;SDS011;5369;49.586;8.646;2023-10-09T12:21:26;12.83;;;4.63;;
10641;SDS011;5369;49.586;8.646;2023-10-09T12:24:02;10.20;;;4.73;;
10641;SDS011;5369;49.586;8.646;2023-10-09T12:26:43;7.50;;;4.50;;
10641;SDS011;5369;49.586;8.646;2023-10-09T12:29:20;7.20;;;4.50;;
10641;SDS011;5369;49.586;8.646;2023-10-09T12:31:56;10.17;;;4.33;;
10641;SDS011;5369;49.586;8.646;2023-10-09T12:34:34;9.50;;;4.47;;
10641;SDS011;5369;49.586;8.646;2023-10-09T12:37:08;13.37;;;4.90;;
10641;SDS011;5369;49.586;8.646;2023-10-09T12:39:44;10.07;;;5.10;;
10641;SDS011;5369;49.586;8.646;2023-10-09T12:42:13;10.97;;;4.70;;
10641;SDS011;5369;49.586;8.646;2023-10-09T12:44:42;12.27;;;4.47;;
10641;SDS011;5369;49.586;8.646;2023-10-09T12:47:09;12.40;;;5.10;;
10641;SDS011;5369;49.586;8.646;2023-10-09T12:49:36;12.57;;;4.40;;
10641;SDS011;5369;49.586;8.646;2023-10-09T12:52:09;14.37;;;4.70;;
10641;SDS011;5369;49.586;8.646;2023-10-09T12:54:43;11.07;;;4.60;;
10641;SDS011;5369;49.586;8.646;2023-10-09T12:57:22;7.57;;;4.80;;
10641;SDS011;5369;49.586;8.646;2023-10-09T12:59:58;10.67;;;4.63;;
10641;SDS011;5369;49.586;8.646;2023-10-09T13:02:40;12.40;;;4.70;;
10641;SDS011;5369;49.586;8.646;2023-10-09T13:05:10;9.57;;;4.53;;
10641;SDS011;5369;49.586;8.646;2023-10-09T13:07:50;11.57;;;5.00;;
10641;SDS011;5369;49.586;8.646;2023-10-09T13:10:16;9.37;;;4.77;;
10641;SDS011;5369;49.586;8.646;2023-10-09T13:12:43;9.60;;;4.90;;
10641;SDS011;5369;49.586;8.646;2023-10-09T13:15:09;10.10;;;4.40;;
10641;SDS011;5369;49.586;8.646;2023-10-09T13:17:39;9.90;;;4.20;;
10641;SDS011;5369;49.586;8.646;2023-10-09T13:20:06;15.13;;;5.10;;
10641;SDS011;5369;49.586;8.646;2023-10-09T13:22:39;13.50;;;5.27;;
10641;SDS011;5369;49.586;8.646;2023-10-09T13:25:07;10.00;;;4.50;;
10641;SDS011;5369;49.586;8.646;2023-10-09T13:27:39;8.60;;;4.87;;
10641;SDS011;5369;49.586;8.646;2023-10-09T13:30:06;9.27;;;4.70;;
10641;SDS011;5369;49.586;8.646;2023-10-09T13:32:34;10.07;;;5.20;;
10641;SDS011;5369;49.586;8.646;2023-10-09T13:35:01;11.80;;;4.73;;
10641;SDS011;5369;49.586;8.646;2023-10-09T13:37:31;9.67;;;4.47;;
10641;SDS011;5369;49.586;8.646;2023-10-09T13:40:04;9.83;;;4.40;;
10641;SDS011;5369;49.586;8.646;2023-10-09T13:42:36;9.57;;;4.70;;
10641;SDS011;5369;49.586;8.646;2023-10-09T13:45:03;11.53;;;4.67;;
10641;SDS011;5369;49.586;8.646;2023-10-09T13:47:44;7.17;;;4.40;;
10641;SDS011;5369;49.586;8.646;2023-10-09T13:50:10;9.67;;;4.40;;
10641;SDS011;5369;49.586;8.646;2023-10-09T13:52:38;8.67;;;4.60;;
10641;SDS011;5369;49.586;8.646;2023-10-09T13:55:05;10.03;;;4.87;;
10641;SDS011;5369;49.586;8.646;2023-10-09T13:57:40;11.43;;;4.70;;
10641;SDS011;5369;49.586;8.646;2023-10-09T14:00:13;11.67;;;4.63;;
10641;SDS011;5369;49.586;8.646;2023-10-09T14:02:58;8.67;;;4.37;;
10641;SDS011;5369;49.586;8.646;2023-10-09T14:05:29;9.77;;;4.60;;
10641;SDS011;5369;49.586;8.646;2023-10-09T14:07:55;8.30;;;4.73;;
10641;SDS011;5369;49.586;8.646;2023-10-09T14:10:25;8.77;;;4.87;;
10641;SDS011;5369;49.586;8.646;2023-10-09T14:12:55;8.43;;;4.70;;
10641;SDS011;5369;49.586;8.646;2023-10-09T14:15:23;7.77;;;4.37;;
10641;SDS011;5369;49.586;8.646;2023-10-09T14:17:49;7.70;;;4.40;;
10641;SDS011;5369;49.586;8.646;2023-10-09T14:20:21;7.57;;;4.30;;
10641;SDS011;5369;49.586;8.646;2023-10-09T14:22:56;11.97;;;5.10;;
10641;SDS011;5369;49.586;8.646;2023-10-09T14:25:22;8.23;;;4.83;;
10641;SDS011;5369;49.586;8.646;2023-10-09T14:27:48;8.03;;;4.87;;
10641;SDS011;5369;49.586;8.646;2023-10-09T14:30:14;8.47;;;4.43;;
10641;SDS011;5369;49.586;8.646;2023-10-09T14:32:48;11.70;;;4.60;;
10641;SDS011;5369;49.586;8.646;2023-10-09T14:35:21;8.13;;;4.80;;
10641;SDS011;5369;49.586;8.646;2023-10-09T14:37:52;9.63;;;4.37;;
10641;SDS011;5369;49.586;8.646;2023-10-09T14:40:21;7.07;;;4.60;;
10641;SDS011;5369;49.586;8.646;2023-10-09T14:42:58;9.30;;;5.10;;
10641;SDS011;5369;49.586;8.646;2023-10-09T14:45:24;8.37;;;4.30;;
10641;SDS011;5369;49.586;8.646;2023-10-09T14:47:51;11.43;;;5.40;;
10641;SDS011;5369;49.586;8.646;2023-10-09T14:50:19;10.17;;;4.87;;
10641;SDS011;5369;49.586;8.646;2023-10-09T14:52:48;10.17;;;4.60;;
10641;SDS011;5369;49.586;8.646;2023-10-09T14:55:15;8.67;;;4.23;;
10641;SDS011;5369;49.586;8.646;2023-10-09T14:57:51;8.40;;;4.10;;
10641;SDS011;5369;49.586;8.646;2023-10-09T15:00:18;10.50;;;4.73;;
10641;SDS011;5369;49.586;8.646;2023-10-09T15:02:51;8.13;;;4.43;;
10641;SDS011;5369;49.586;8.646;2023-10-09T15:05:17;9.03;;;4.70;;
10641;SDS011;5369;49.586;8.646;2023-10-09T15:07:44;14.30;;;4.83;;
10641;SDS011;5369;49.586;8.646;2023-10-09T15:10:10;9.07;;;4.50;;
10641;SDS011;5369;49.586;8.646;2023-10-09T15:12:40;8.17;;;4.40;;
10641;SDS011;5369;49.586;8.646;2023-10-09T15:15:08;10.87;;;4.77;;
10641;SDS011;5369;49.586;8.646;2023-10-09T15:17:42;8.53;;;5.03;;
10641;SDS011;5369;49.586;8.646;2023-10-09T15:20:12;10.10;;;4.57;;
10641;SDS011;5369;49.586;8.646;2023-10-09T15:22:42;8.50;;;4.60;;
10641;SDS011;5369;49.586;8.646;2023-10-09T15:25:08;9.80;;;4.53;;
10641;SDS011;5369;49.586;8.646;2023-10-09T15:27:40;8.33;;;4.87;;
10641;SDS011;5369;49.586;8.646;2023-10-09T15:30:07;7.83;;;4.40;;
10641;SDS011;5369;49.586;8.646;2023-10-09T15:32:39;11.67;;;4.93;;
10641;SDS011;5369;49.586;8.646;2023-10-09T15:35:06;9.40;;;4.60;;
10641;SDS011;5369;49.586;8.646;2023-10-09T15:37:38;11.33;;;4.93;;
10641;SDS011;5369;49.586;8.646;2023-10-09T15:40:06;11.20;;;4.60;;
10641;SDS011;5369;49.586;8.646;2023-10-09T15:42:42;13.83;;;5.13;;
10641;SDS011;5369;49.586;8.646;2023-10-09T15:45:18;9.13;;;4.90;;
10641;SDS011;5369;49.586;8.646;2023-10-09T15:47:49;9.13;;;5.00;;
10641;SDS011;5369;49.586;8.646;2023-10-09T15:50:19;8.77;;;5.27;;
10641;SDS011;5369;49.586;8.646;2023-10-09T15:52:48;10.43;;;4.93;;